Time;durP1;ratioP1;P1;durP2;ratioP2;P2;SDS_P1;SDS_P2;PMS_P1;PMS_P2;Temp;Humidity;BMP_temperature;BMP_pressure;BME280_temperature;BME280_humidity;BME280_pressure;Samples;Min_cycle;Max_cycle;Signal;HPM_P1;HPM_P2
2022/12/24 00:00:12;;;;;;;8.60;7.67;;;;;;;;;;5114761;28;20449;-66
2022/12/24 00:02:39;;;;;;;9.03;7.43;;;;;;;;;;5114717;28;20531;-66
2022/12/24 00:05:07;;;;;;;8.00;6.53;;;;;;;;;;5114626;28;20492;-66
2022/12/24 00:07:34;;;;;;;8.70;6.30;;;;;;;;;;5114491;28;20979;-66
2022/12/24 00:10:02;;;;;;;7.03;6.33;;;;;;;;;;5114031;28;20449;-66
2022/12/24 00:12:29;;;;;;;6.70;6.10;;;;;;;;;;5114613;28;20449;-66
2022/12/24 00:14:56;;;;;;;7.90;7.00;;;;;;;;;;5114563;28;20293;-66
2022/12/24 00:17:23;;;;;;;8.07;7.37;;;;;;;;;;5114277;28;21027;-66
2022/12/24 00:19:50;;;;;;;9.10;7.27;;;;;;;;;;5114332;28;20860;-66
2022/12/24 00:22:16;;;;;;;9.73;8.13;;;;;;;;;;5114209;28;20449;-66
2022/12/24 00:24:43;;;;;;;7.65;6.82;;;;;;;;;;5114126;28;20446;-66
2022/12/24 00:27:12;;;;;;;10.35;7.40;;;;;;;;;;5114397;28;20243;-66
2022/12/24 00:29:39;;;;;;;8.95;7.35;;;;;;;;;;5113999;28;20655;-66
2022/12/24 00:32:08;;;;;;;9.63;7.20;;;;;;;;;;5114163;28;20215;-66
2022/12/24 00:34:35;;;;;;;9.33;7.17;;;;;;;;;;5114066;28;20547;-66
2022/12/24 00:37:03;;;;;;;8.37;6.60;;;;;;;;;;5113912;28;20448;-66
2022/12/24 00:39:30;;;;;;;7.67;6.87;;;;;;;;;;5114114;28;20509;-66
2022/12/24 00:41:56;;;;;;;7.10;6.40;;;;;;;;;;5113990;28;20452;-66
2022/12/24 00:44:25;;;;;;;7.00;6.30;;;;;;;;;;5113985;28;20459;-66
2022/12/24 00:46:52;;;;;;;6.50;5.80;;;;;;;;;;5113928;28;20317;-66
2022/12/24 00:49:19;;;;;;;6.23;5.63;;;;;;;;;;5113654;28;21010;-66
2022/12/24 00:51:46;;;;;;;6.40;5.70;;;;;;;;;;5113720;28;20544;-66
2022/12/24 00:54:13;;;;;;;7.57;5.78;;;;;;;;;;5113895;28;20194;-66
2022/12/24 00:56:40;;;;;;;10.13;6.30;;;;;;;;;;5113642;28;20255;-66
2022/12/24 00:59:07;;;;;;;6.40;5.43;;;;;;;;;;5113697;28;20452;-66
2022/12/24 01:01:36;;;;;;;6.05;5.45;;;;;;;;;;5113570;28;21029;-66
2022/12/24 01:06:47;;;;;;;5.43;4.93;;;;;;;;;;5113710;28;21026;-67
2022/12/24 01:09:14;;;;;;;6.57;5.90;;;;;;;;;;5113682;28;20916;-66
2022/12/24 01:11:41;;;;;;;6.37;5.57;;;;;;;;;;5113605;28;21020;-66
2022/12/24 01:14:08;;;;;;;5.67;5.07;;;;;;;;;;5113675;28;20453;-66
2022/12/24 01:16:37;;;;;;;6.30;5.57;;;;;;;;;;5113908;28;20461;-66
2022/12/24 01:19:04;;;;;;;8.02;5.60;;;;;;;;;;5113658;28;20544;-66
2022/12/24 01:21:31;;;;;;;8.40;6.17;;;;;;;;;;5112840;28;20599;-66
2022/12/24 01:23:58;;;;;;;5.90;5.30;;;;;;;;;;5113542;28;20455;-66
2022/12/24 01:26:25;;;;;;;6.27;5.67;;;;;;;;;;5113462;28;20194;-66
2022/12/24 01:28:52;;;;;;;6.93;5.82;;;;;;;;;;5113357;28;20523;-66
2022/12/24 01:31:19;;;;;;;6.40;5.80;;;;;;;;;;5113197;28;20197;-66
2022/12/24 01:33:49;;;;;;;5.23;4.73;;;;;;;;;;5113693;28;20230;-66
2022/12/24 01:36:17;;;;;;;6.55;5.80;;;;;;;;;;5113557;28;20544;-66
2022/12/24 01:38:44;;;;;;;5.82;5.20;;;;;;;;;;5113317;28;20197;-66
2022/12/24 01:44:15;;;;;;;6.00;5.50;;;;;;;;;;5113213;28;20513;-66
2022/12/24 01:46:42;;;;;;;6.50;4.93;;;;;;;;;;5113142;28;20229;-66
2022/12/24 01:49:11;;;;;;;6.13;5.63;;;;;;;;;;5113100;28;20491;-66
2022/12/24 01:51:40;;;;;;;7.55;6.45;;;;;;;;;;5113156;28;20543;-66
2022/12/24 01:54:08;;;;;;;7.13;6.40;;;;;;;;;;5113093;28;20285;-66
2022/12/24 01:56:36;;;;;;;7.80;5.68;;;;;;;;;;5113288;28;20575;-66
2022/12/24 01:59:05;;;;;;;6.63;6.03;;;;;;;;;;5113234;28;20195;-66
2022/12/24 02:01:32;;;;;;;6.88;5.93;;;;;;;;;;5113184;28;20452;-66
2022/12/24 02:03:59;;;;;;;8.00;7.30;;;;;;;;;;5113051;28;20294;-66
2022/12/24 02:06:27;;;;;;;7.90;7.00;;;;;;;;;;5113022;28;20195;-66
2022/12/24 02:08:55;;;;;;;6.90;6.13;;;;;;;;;;5112857;28;20485;-66
2022/12/24 02:11:23;;;;;;;7.50;6.80;;;;;;;;;;5113306;28;20452;-66
2022/12/24 02:13:51;;;;;;;7.33;6.73;;;;;;;;;;5113011;28;20456;-66
2022/12/24 02:16:27;;;;;;;8.30;7.47;;;;;;;;;;5112949;28;20533;-66
2022/12/24 02:18:59;;;;;;;7.90;7.10;;;;;;;;;;5112932;28;20544;-66
2022/12/24 02:21:40;;;;;;;8.20;7.27;;;;;;;;;;5112830;28;20454;-66
2022/12/24 02:24:23;;;;;;;8.00;7.20;;;;;;;;;;5112999;28;20860;-66
2022/12/24 02:27:05;;;;;;;8.23;7.43;;;;;;;;;;5112896;28;20457;-66
2022/12/24 02:29:49;;;;;;;9.02;7.55;;;;;;;;;;5112660;28;21017;-66
2022/12/24 02:32:21;;;;;;;9.50;7.47;;;;;;;;;;5113573;28;20192;-66
2022/12/24 02:34:51;;;;;;;9.13;8.17;;;;;;;;;;5116803;28;20209;-66
2022/12/24 02:37:20;;;;;;;9.60;8.60;;;;;;;;;;5116407;28;20540;-66
2022/12/24 02:39:48;;;;;;;9.60;8.43;;;;;;;;;;5116336;28;20194;-66
2022/12/24 02:42:16;;;;;;;11.70;9.27;;;;;;;;;;5116232;28;20532;-66
2022/12/24 02:44:46;;;;;;;10.70;8.37;;;;;;;;;;5116617;28;20462;-66
2022/12/24 02:47:15;;;;;;;11.00;9.85;;;;;;;;;;5116221;28;20557;-66
2022/12/24 02:49:44;;;;;;;10.30;8.60;;;;;;;;;;5116471;28;20317;-66
2022/12/24 02:52:26;;;;;;;9.05;8.15;;;;;;;;;;5116089;28;20947;-66
2022/12/24 02:54:53;;;;;;;9.23;8.33;;;;;;;;;;5115981;28;20195;-66
2022/12/24 02:57:21;;;;;;;10.43;9.20;;;;;;;;;;5116078;28;20536;-66
2022/12/24 02:59:57;;;;;;;12.80;9.30;;;;;;;;;;5116010;28;20195;-66
2022/12/24 03:02:30;;;;;;;11.13;9.02;;;;;;;;;;5115986;28;20550;-66
2022/12/24 03:05:00;;;;;;;11.07;8.73;;;;;;;;;;5115822;28;20194;-66
2022/12/24 03:07:30;;;;;;;14.37;9.50;;;;;;;;;;5115937;28;20911;-66
2022/12/24 03:10:02;;;;;;;11.37;9.80;;;;;;;;;;5115703;28;20842;-66
2022/12/24 03:12:32;;;;;;;13.40;10.30;;;;;;;;;;5115668;28;20947;-66
2022/12/24 03:15:00;;;;;;;10.77;9.68;;;;;;;;;;5115591;28;20504;-66
2022/12/24 03:17:28;;;;;;;11.60;9.93;;;;;;;;;;5115579;28;20195;-66
2022/12/24 03:19:56;;;;;;;12.10;9.90;;;;;;;;;;5115924;28;20195;-66
2022/12/24 03:22:23;;;;;;;14.18;11.02;;;;;;;;;;5115634;28;20614;-66
2022/12/24 03:24:50;;;;;;;12.43;9.50;;;;;;;;;;5115521;28;20237;-66
2022/12/24 03:27:17;;;;;;;12.27;9.80;;;;;;;;;;5115470;28;20191;-66
2022/12/24 03:29:45;;;;;;;12.00;10.27;;;;;;;;;;5115268;28;20911;-66
2022/12/24 03:32:12;;;;;;;11.57;10.00;;;;;;;;;;5115212;28;20544;-66
2022/12/24 03:34:40;;;;;;;15.00;10.70;;;;;;;;;;5115365;28;20277;-66
2022/12/24 03:37:07;;;;;;;13.57;10.40;;;;;;;;;;5115325;28;20533;-66
2022/12/24 03:39:34;;;;;;;13.57;11.65;;;;;;;;;;5115242;28;20453;-66
2022/12/24 03:42:01;;;;;;;12.93;9.73;;;;;;;;;;5115125;28;20234;-66
2022/12/24 03:44:28;;;;;;;12.52;10.80;;;;;;;;;;5114405;28;20201;-66
2022/12/24 03:46:55;;;;;;;13.40;10.13;;;;;;;;;;5114884;28;20551;-65
2022/12/24 03:49:22;;;;;;;18.98;12.60;;;;;;;;;;5114922;28;21094;-66
2022/12/24 03:51:50;;;;;;;16.30;12.60;;;;;;;;;;5115006;28;20194;-66
2022/12/24 03:54:17;;;;;;;18.90;12.33;;;;;;;;;;5114843;28;20505;-66
2022/12/24 03:56:44;;;;;;;15.63;11.83;;;;;;;;;;5114812;28;20549;-66
2022/12/24 03:59:11;;;;;;;15.93;11.80;;;;;;;;;;5114628;28;20452;-66
2022/12/24 04:01:38;;;;;;;13.90;11.07;;;;;;;;;;5114825;28;20456;-65
2022/12/24 04:04:05;;;;;;;15.13;11.30;;;;;;;;;;5114806;28;20811;-66
2022/12/24 04:06:32;;;;;;;18.50;12.03;;;;;;;;;;5114546;28;20209;-66
2022/12/24 04:09:03;;;;;;;15.30;11.70;;;;;;;;;;5114488;28;20468;-66
2022/12/24 04:11:31;;;;;;;18.30;12.05;;;;;;;;;;5114482;28;20446;-66
2022/12/24 04:13:58;;;;;;;15.70;12.40;;;;;;;;;;5114466;28;20281;-66
2022/12/24 04:16:25;;;;;;;13.93;11.33;;;;;;;;;;5114548;28;20529;-66
2022/12/24 04:18:51;;;;;;;16.98;12.32;;;;;;;;;;5114754;28;20455;-66
2022/12/24 04:21:18;;;;;;;16.80;12.40;;;;;;;;;;5114360;28;20282;-66
2022/12/24 04:23:46;;;;;;;15.43;11.70;;;;;;;;;;5114271;28;20819;-66
2022/12/24 04:26:15;;;;;;;15.83;11.43;;;;;;;;;;5114067;28;20449;-66
2022/12/24 04:28:43;;;;;;;15.25;12.45;;;;;;;;;;5114307;28;20554;-66
2022/12/24 04:31:11;;;;;;;15.73;10.87;;;;;;;;;;5114410;28;20194;-66
2022/12/24 04:33:38;;;;;;;11.97;10.27;;;;;;;;;;5114274;28;20455;-66
2022/12/24 04:36:06;;;;;;;15.53;12.07;;;;;;;;;;5114086;28;20459;-66
2022/12/24 04:38:33;;;;;;;12.50;10.20;;;;;;;;;;5113972;28;20453;-66
2022/12/24 04:41:00;;;;;;;12.43;10.20;;;;;;;;;;5113890;28;20881;-66
2022/12/24 04:43:29;;;;;;;13.95;10.75;;;;;;;;;;5114165;28;20451;-66
2022/12/24 04:45:56;;;;;;;16.07;11.00;;;;;;;;;;5113889;28;20220;-65
2022/12/24 04:48:23;;;;;;;12.07;9.30;;;;;;;;;;5113934;28;20531;-65
2022/12/24 04:50:50;;;;;;;11.32;9.80;;;;;;;;;;5113786;28;20484;-66
2022/12/24 04:53:17;;;;;;;10.57;9.30;;;;;;;;;;5113714;28;20277;-66
2022/12/24 04:55:45;;;;;;;10.98;9.63;;;;;;;;;;5113258;28;20536;-66
2022/12/24 04:58:12;;;;;;;12.27;9.13;;;;;;;;;;5113540;28;20198;-66
2022/12/24 05:00:40;;;;;;;11.73;9.17;;;;;;;;;;5113937;28;20541;-66
2022/12/24 05:03:07;;;;;;;9.13;8.10;;;;;;;;;;5113920;28;20548;-66
2022/12/24 05:05:34;;;;;;;16.03;10.90;;;;;;;;;;5113638;28;20487;-66
2022/12/24 05:08:01;;;;;;;14.77;10.43;;;;;;;;;;5113457;28;20539;-66
2022/12/24 05:10:28;;;;;;;10.63;9.32;;;;;;;;;;5113748;28;20568;-66
2022/12/24 05:12:55;;;;;;;11.50;8.73;;;;;;;;;;5113626;28;20247;-66
2022/12/24 05:15:22;;;;;;;8.52;7.70;;;;;;;;;;5113555;28;20902;-66
2022/12/24 05:17:50;;;;;;;11.07;9.43;;;;;;;;;;5113468;28;20194;-66
2022/12/24 05:20:18;;;;;;;11.63;9.47;;;;;;;;;;5113417;28;20449;-65
2022/12/24 05:28:17;;;;;;;11.00;9.60;;;;;;;;;;5113750;28;20444;-66
2022/12/24 05:30:44;;;;;;;12.03;7.80;;;;;;;;;;5113133;28;20574;-66
2022/12/24 05:33:12;;;;;;;8.80;7.90;;;;;;;;;;5113490;28;20449;-66
2022/12/24 05:35:39;;;;;;;9.23;8.20;;;;;;;;;;5113400;28;20446;-66
2022/12/24 05:38:06;;;;;;;9.00;8.00;;;;;;;;;;5113335;28;20881;-66
2022/12/24 05:40:33;;;;;;;9.87;7.73;;;;;;;;;;5113257;28;20449;-66
2022/12/24 05:43:00;;;;;;;12.47;8.67;;;;;;;;;;5113212;28;20540;-66
2022/12/24 05:45:27;;;;;;;28.50;8.17;;;;;;;;;;5112963;28;20485;-66
2022/12/24 05:47:54;;;;;;;10.77;9.63;;;;;;;;;;5113364;28;20448;-66
2022/12/24 05:50:22;;;;;;;10.27;7.70;;;;;;;;;;5113206;28;20930;-66
2022/12/24 05:52:49;;;;;;;8.87;7.97;;;;;;;;;;5113233;28;20454;-66
2022/12/24 05:55:16;;;;;;;9.70;8.50;;;;;;;;;;5113140;28;20532;-66
2022/12/24 05:57:43;;;;;;;9.03;7.87;;;;;;;;;;5113081;28;20275;-66
2022/12/24 06:00:10;;;;;;;11.80;9.50;;;;;;;;;;5113153;28;20449;-66
2022/12/24 06:02:37;;;;;;;12.50;8.43;;;;;;;;;;5113199;28;20452;-66
2022/12/24 06:05:04;;;;;;;9.30;7.80;;;;;;;;;;5113111;28;20485;-66
2022/12/24 06:07:33;;;;;;;8.87;7.67;;;;;;;;;;5113867;28;20543;-65
2022/12/24 06:10:00;;;;;;;12.13;8.10;;;;;;;;;;5116980;28;20486;-65
2022/12/24 06:12:27;;;;;;;9.47;8.47;;;;;;;;;;5116695;28;21006;-66
2022/12/24 06:14:53;;;;;;;9.90;8.00;;;;;;;;;;5117190;28;20448;-66
2022/12/24 06:17:20;;;;;;;9.57;7.63;;;;;;;;;;5116780;28;20448;-66
2022/12/24 06:19:47;;;;;;;10.57;8.63;;;;;;;;;;5117049;28;20543;-66
2022/12/24 06:22:14;;;;;;;9.67;7.90;;;;;;;;;;5116730;28;20533;-66
2022/12/24 06:24:43;;;;;;;9.57;7.83;;;;;;;;;;5116565;28;20486;-66
2022/12/24 06:27:09;;;;;;;11.40;8.13;;;;;;;;;;5116433;28;20803;-66
2022/12/24 06:29:36;;;;;;;9.00;7.47;;;;;;;;;;5116443;28;20552;-66
2022/12/24 06:32:03;;;;;;;10.67;8.67;;;;;;;;;;5116631;28;20455;-66
2022/12/24 06:34:30;;;;;;;8.77;7.87;;;;;;;;;;5116519;28;20449;-66
2022/12/24 06:36:57;;;;;;;10.47;9.10;;;;;;;;;;5116437;28;20531;-66
2022/12/24 06:39:24;;;;;;;11.50;9.67;;;;;;;;;;5116293;28;21048;-66
2022/12/24 06:41:52;;;;;;;10.40;9.20;;;;;;;;;;5116526;28;20522;-66
2022/12/24 06:44:19;;;;;;;11.33;8.60;;;;;;;;;;5116685;28;20532;-66
2022/12/24 06:46:47;;;;;;;10.43;9.10;;;;;;;;;;5116168;28;20481;-66
2022/12/24 06:49:14;;;;;;;10.93;8.43;;;;;;;;;;5116098;28;20457;-66
2022/12/24 06:51:41;;;;;;;10.93;8.37;;;;;;;;;;5116277;28;20449;-66
2022/12/24 06:54:08;;;;;;;8.53;7.53;;;;;;;;;;5115947;28;20532;-66
2022/12/24 06:56:35;;;;;;;8.57;7.63;;;;;;;;;;5116123;28;20445;-66
2022/12/24 06:59:03;;;;;;;10.33;8.50;;;;;;;;;;5116108;28;20880;-66
2022/12/24 07:01:30;;;;;;;10.73;8.70;;;;;;;;;;5115983;28;20548;-66
2022/12/24 07:03:57;;;;;;;13.03;9.43;;;;;;;;;;5116142;28;20532;-66
2022/12/24 07:06:25;;;;;;;9.80;8.20;;;;;;;;;;5115784;28;20474;-66
2022/12/24 07:08:52;;;;;;;10.00;7.97;;;;;;;;;;5115626;28;20544;-66
2022/12/24 07:11:19;;;;;;;8.40;7.10;;;;;;;;;;5116009;28;20837;-66
2022/12/24 07:13:46;;;;;;;9.90;8.07;;;;;;;;;;5115749;28;20444;-66
2022/12/24 07:16:14;;;;;;;9.00;7.37;;;;;;;;;;5115527;28;20449;-66
2022/12/24 07:18:41;;;;;;;10.50;8.80;;;;;;;;;;5115016;28;20851;-66
2022/12/24 07:21:09;;;;;;;15.43;9.07;;;;;;;;;;5115259;28;20453;-66
2022/12/24 07:23:36;;;;;;;13.27;10.17;;;;;;;;;;5115733;28;20442;-66
2022/12/24 07:26:04;;;;;;;11.63;8.97;;;;;;;;;;5115475;28;20536;-66
2022/12/24 07:28:31;;;;;;;13.00;9.10;;;;;;;;;;5115809;28;20533;-66
2022/12/24 07:30:58;;;;;;;12.13;8.83;;;;;;;;;;5115354;28;20491;-66
2022/12/24 07:33:27;;;;;;;8.83;7.50;;;;;;;;;;5115256;28;20533;-66
2022/12/24 07:36:00;;;;;;;9.43;7.93;;;;;;;;;;5115095;28;20881;-66
2022/12/24 07:38:27;;;;;;;12.50;8.57;;;;;;;;;;5115309;28;20838;-66
2022/12/24 07:40:54;;;;;;;11.23;8.77;;;;;;;;;;5115473;28;20537;-66
2022/12/24 07:43:21;;;;;;;11.50;7.80;;;;;;;;;;5115157;28;20857;-66
2022/12/24 07:45:48;;;;;;;9.80;7.87;;;;;;;;;;5114923;28;20481;-66
2022/12/24 07:48:15;;;;;;;9.70;8.10;;;;;;;;;;5114937;28;20453;-66
2022/12/24 07:50:43;;;;;;;10.30;8.37;;;;;;;;;;5115044;28;20486;-65
2022/12/24 07:53:10;;;;;;;10.37;8.83;;;;;;;;;;5115007;28;20437;-66
2022/12/24 07:55:37;;;;;;;10.53;8.20;;;;;;;;;;5115214;28;20441;-66
2022/12/24 07:58:04;;;;;;;12.07;8.70;;;;;;;;;;5114831;28;20448;-66
2022/12/24 08:00:31;;;;;;;10.80;8.00;;;;;;;;;;5114758;28;20449;-66
2022/12/24 08:02:58;;;;;;;12.90;9.67;;;;;;;;;;5114593;28;20541;-66
2022/12/24 08:05:26;;;;;;;12.00;8.77;;;;;;;;;;5114822;28;20449;-66
2022/12/24 08:07:54;;;;;;;11.27;8.67;;;;;;;;;;5114740;28;20468;-66
2022/12/24 08:10:21;;;;;;;11.10;8.93;;;;;;;;;;5114448;28;20476;-66
2022/12/24 08:12:49;;;;;;;12.17;8.70;;;;;;;;;;5114525;28;20540;-65
2022/12/24 08:15:16;;;;;;;8.97;7.97;;;;;;;;;;5114320;28;20959;-65
2022/12/24 08:17:42;;;;;;;10.80;8.53;;;;;;;;;;5114293;28;20541;-65
2022/12/24 08:20:10;;;;;;;10.70;7.93;;;;;;;;;;5114509;28;20528;-65
2022/12/24 08:22:37;;;;;;;10.67;8.33;;;;;;;;;;5114343;28;20880;-65
2022/12/24 08:25:05;;;;;;;12.80;8.70;;;;;;;;;;5114242;28;20442;-65
2022/12/24 08:27:32;;;;;;;11.43;7.67;;;;;;;;;;5114249;28;20448;-65
2022/12/24 08:29:59;;;;;;;9.17;7.70;;;;;;;;;;5113783;28;20470;-65
2022/12/24 08:32:26;;;;;;;10.20;8.10;;;;;;;;;;5114313;28;20884;-65
2022/12/24 08:34:53;;;;;;;10.33;8.00;;;;;;;;;;5114312;28;20959;-65
2022/12/24 08:37:20;;;;;;;9.07;7.60;;;;;;;;;;5114085;28;20952;-65
2022/12/24 08:39:47;;;;;;;9.90;7.70;;;;;;;;;;5114000;28;20890;-65
2022/12/24 08:42:15;;;;;;;13.00;8.23;;;;;;;;;;5113937;28;20518;-65
2022/12/24 08:44:42;;;;;;;11.73;8.80;;;;;;;;;;5113750;28;20457;-65
2022/12/24 08:47:09;;;;;;;9.80;8.20;;;;;;;;;;5113617;28;20469;-65
2022/12/24 08:49:36;;;;;;;9.90;8.50;;;;;;;;;;5113722;28;20442;-65
2022/12/24 08:52:03;;;;;;;11.77;9.40;;;;;;;;;;5113634;28;20520;-65
2022/12/24 08:54:30;;;;;;;11.83;9.10;;;;;;;;;;5113748;28;20561;-65
2022/12/24 08:56:57;;;;;;;10.20;8.90;;;;;;;;;;5113686;28;20450;-65
2022/12/24 08:59:25;;;;;;;10.90;8.30;;;;;;;;;;5113613;28;20450;-66
2022/12/24 09:01:52;;;;;;;11.27;8.27;;;;;;;;;;5113777;28;20544;-65
2022/12/24 09:04:19;;;;;;;12.30;8.90;;;;;;;;;;5113752;28;20535;-65
2022/12/24 09:06:46;;;;;;;9.70;7.83;;;;;;;;;;5113640;28;20457;-65
2022/12/24 09:09:13;;;;;;;12.90;9.03;;;;;;;;;;5113638;28;20540;-65
2022/12/24 09:11:40;;;;;;;12.60;9.10;;;;;;;;;;5113373;28;20484;-65
2022/12/24 09:14:07;;;;;;;12.17;9.70;;;;;;;;;;5113690;28;20536;-65
2022/12/24 09:16:36;;;;;;;11.40;7.80;;;;;;;;;;5113572;28;20541;-65
2022/12/24 09:19:03;;;;;;;10.70;8.20;;;;;;;;;;5113406;28;20446;-65
2022/12/24 09:21:30;;;;;;;11.13;8.10;;;;;;;;;;5113420;28;20486;-65
2022/12/24 09:23:59;;;;;;;11.13;9.10;;;;;;;;;;5113565;28;20450;-65
2022/12/24 09:26:28;;;;;;;12.13;7.80;;;;;;;;;;5113292;28;20446;-65
2022/12/24 09:28:55;;;;;;;16.60;9.23;;;;;;;;;;5113350;28;20450;-65
2022/12/24 09:31:22;;;;;;;11.70;8.80;;;;;;;;;;5113328;28;20496;-65
2022/12/24 09:33:51;;;;;;;11.73;9.40;;;;;;;;;;5113390;28;20446;-65
2022/12/24 09:36:18;;;;;;;10.73;8.17;;;;;;;;;;5113250;28;20537;-65
2022/12/24 09:38:45;;;;;;;10.73;8.97;;;;;;;;;;5113096;28;20540;-65
2022/12/24 09:41:13;;;;;;;11.93;8.27;;;;;;;;;;5113372;28;20536;-65
2022/12/24 09:43:40;;;;;;;10.10;8.10;;;;;;;;;;5116139;28;20536;-65
2022/12/24 09:46:10;;;;;;;11.00;9.23;;;;;;;;;;5117318;28;20483;-65
2022/12/24 09:48:39;;;;;;;12.10;8.30;;;;;;;;;;5117290;28;20441;-65
2022/12/24 09:51:09;;;;;;;11.50;7.50;;;;;;;;;;5117125;28;20560;-65
2022/12/24 09:53:38;;;;;;;11.73;9.10;;;;;;;;;;5116966;28;20884;-65
2022/12/24 09:56:08;;;;;;;13.77;9.60;;;;;;;;;;5117210;28;20560;-65
2022/12/24 09:58:38;;;;;;;13.43;10.13;;;;;;;;;;5117156;28;20455;-65
2022/12/24 10:01:05;;;;;;;10.80;9.50;;;;;;;;;;5117068;28;20457;-65
2022/12/24 10:03:32;;;;;;;14.93;10.87;;;;;;;;;;5117002;28;20543;-65
2022/12/24 10:06:03;;;;;;;10.30;9.20;;;;;;;;;;5117238;28;20537;-65
2022/12/24 10:08:36;;;;;;;10.30;9.03;;;;;;;;;;5117129;28;20817;-65
2022/12/24 10:11:06;;;;;;;10.27;8.30;;;;;;;;;;5116861;28;20811;-65
2022/12/24 10:13:40;;;;;;;10.63;8.60;;;;;;;;;;5116822;28;20536;-65
2022/12/24 10:16:12;;;;;;;10.37;8.57;;;;;;;;;;5116761;28;20541;-65
2022/12/24 10:18:43;;;;;;;15.73;11.70;;;;;;;;;;5116928;28;20535;-65
2022/12/24 10:21:13;;;;;;;12.80;11.27;;;;;;;;;;5116856;28;20515;-65
2022/12/24 10:23:44;;;;;;;14.53;12.80;;;;;;;;;;5116736;28;20450;-65
2022/12/24 10:26:15;;;;;;;11.07;9.87;;;;;;;;;;5116621;28;20518;-65
2022/12/24 10:28:46;;;;;;;10.80;8.60;;;;;;;;;;5116555;28;20529;-65
2022/12/24 10:31:14;;;;;;;10.93;8.97;;;;;;;;;;5116634;28;20915;-65
2022/12/24 10:33:42;;;;;;;12.30;11.00;;;;;;;;;;5116535;28;20544;-65
2022/12/24 10:36:12;;;;;;;12.40;10.03;;;;;;;;;;5116410;28;20537;-65
2022/12/24 10:38:39;;;;;;;11.00;9.90;;;;;;;;;;5116674;28;20540;-65
2022/12/24 10:41:08;;;;;;;12.83;9.67;;;;;;;;;;5116405;28;20456;-65
2022/12/24 10:43:36;;;;;;;13.43;10.90;;;;;;;;;;5116130;28;20533;-65
2022/12/24 10:46:05;;;;;;;12.40;9.57;;;;;;;;;;5116086;28;20976;-65
2022/12/24 10:48:35;;;;;;;10.93;9.43;;;;;;;;;;5116273;28;20540;-65
2022/12/24 10:51:04;;;;;;;10.60;8.23;;;;;;;;;;5116106;28;20465;-65
2022/12/24 10:53:38;;;;;;;9.53;8.53;;;;;;;;;;5116008;28;20441;-65
2022/12/24 10:56:07;;;;;;;11.17;7.60;;;;;;;;;;5116183;28;20540;-65
2022/12/24 10:58:35;;;;;;;9.50;7.80;;;;;;;;;;5115908;28;20442;-65
2022/12/24 11:01:02;;;;;;;9.57;7.73;;;;;;;;;;5116012;28;20860;-66
2022/12/24 11:03:31;;;;;;;9.77;7.50;;;;;;;;;;5116028;28;20446;-66
2022/12/24 11:06:02;;;;;;;9.37;8.40;;;;;;;;;;5116007;28;20851;-65
2022/12/24 11:08:29;;;;;;;8.93;7.37;;;;;;;;;;5115701;28;20481;-65
2022/12/24 11:10:57;;;;;;;11.10;8.80;;;;;;;;;;5115809;28;20477;-65
2022/12/24 11:13:26;;;;;;;10.83;9.03;;;;;;;;;;5115797;28;20785;-65
2022/12/24 11:16:01;;;;;;;10.20;8.83;;;;;;;;;;5115752;28;20461;-65
2022/12/24 11:18:28;;;;;;;8.67;7.77;;;;;;;;;;5115540;28;20547;-65
2022/12/24 11:20:58;;;;;;;8.20;7.40;;;;;;;;;;5115704;28;20450;-65
2022/12/24 11:23:25;;;;;;;9.40;7.77;;;;;;;;;;5115645;28;20510;-65
2022/12/24 11:25:52;;;;;;;7.60;6.90;;;;;;;;;;5115609;28;20566;-65
2022/12/24 11:28:21;;;;;;;7.43;6.73;;;;;;;;;;5115590;28;20540;-65
2022/12/24 11:30:56;;;;;;;9.60;7.60;;;;;;;;;;5115344;28;20537;-65
2022/12/24 11:33:24;;;;;;;7.10;6.33;;;;;;;;;;5115266;28;20488;-65
2022/12/24 11:35:57;;;;;;;6.90;6.27;;;;;;;;;;5115661;28;20456;-65
2022/12/24 11:38:25;;;;;;;7.17;6.57;;;;;;;;;;5115334;28;20541;-65
2022/12/24 11:40:58;;;;;;;6.80;6.17;;;;;;;;;;5115186;28;20450;-65
2022/12/24 11:43:43;;;;;;;6.10;5.60;;;;;;;;;;5115286;28;20456;-65
2022/12/24 11:46:12;;;;;;;6.63;5.90;;;;;;;;;;5115122;28;20466;-65
2022/12/24 11:48:40;;;;;;;6.23;5.63;;;;;;;;;;5114880;28;20442;-65
2022/12/24 11:51:19;;;;;;;6.83;6.13;;;;;;;;;;5114677;28;20546;-65
2022/12/24 11:53:49;;;;;;;6.73;6.10;;;;;;;;;;5114938;28;20541;-65
2022/12/24 11:56:23;;;;;;;5.17;4.77;;;;;;;;;;5114635;28;20446;-65
2022/12/24 11:58:52;;;;;;;5.67;5.27;;;;;;;;;;5114844;28;20874;-65
2022/12/24 12:01:22;;;;;;;5.60;5.10;;;;;;;;;;5114600;28;20537;-65
2022/12/24 12:03:52;;;;;;;6.27;5.73;;;;;;;;;;5114529;28;20804;-65
2022/12/24 12:06:28;;;;;;;7.37;6.53;;;;;;;;;;5113878;28;20533;-65
2022/12/24 12:08:56;;;;;;;6.03;5.43;;;;;;;;;;5114388;28;20544;-65
2022/12/24 12:11:25;;;;;;;5.93;5.50;;;;;;;;;;5114475;28;20909;-65
2022/12/24 12:13:53;;;;;;;7.87;7.17;;;;;;;;;;5114429;28;20484;-65
2022/12/24 12:16:22;;;;;;;9.77;8.87;;;;;;;;;;5114361;28;20983;-65
2022/12/24 12:18:53;;;;;;;7.70;7.10;;;;;;;;;;5114119;28;20453;-65
2022/12/24 12:21:22;;;;;;;6.40;5.77;;;;;;;;;;5113966;28;20886;-65
2022/12/24 12:23:51;;;;;;;6.93;6.43;;;;;;;;;;5114166;28;20450;-65
2022/12/24 12:26:20;;;;;;;5.57;5.07;;;;;;;;;;5114134;28;20541;-65
2022/12/24 12:28:49;;;;;;;6.40;5.80;;;;;;;;;;5114203;28;20452;-65
2022/12/24 12:31:18;;;;;;;8.50;6.23;;;;;;;;;;5114071;28;20560;-65
2022/12/24 12:33:48;;;;;;;4.37;3.97;;;;;;;;;;5113898;28;20446;-65
2022/12/24 12:36:19;;;;;;;5.07;4.67;;;;;;;;;;5114147;28;20445;-65
2022/12/24 12:38:46;;;;;;;6.23;5.70;;;;;;;;;;5114151;28;20545;-65
2022/12/24 12:41:20;;;;;;;5.93;5.43;;;;;;;;;;5114035;28;20521;-65
2022/12/24 12:43:57;;;;;;;5.17;4.77;;;;;;;;;;5114041;28;20962;-65
2022/12/24 12:46:29;;;;;;;6.77;4.90;;;;;;;;;;5113806;28;20591;-65
2022/12/24 12:49:03;;;;;;;5.83;5.30;;;;;;;;;;5114014;28;20550;-65
2022/12/24 12:51:35;;;;;;;4.70;4.27;;;;;;;;;;5113888;28;20475;-65
2022/12/24 12:54:13;;;;;;;5.60;5.10;;;;;;;;;;5113818;28;20450;-65
2022/12/24 12:56:42;;;;;;;6.20;5.70;;;;;;;;;;5113624;28;20915;-65
2022/12/24 12:59:12;;;;;;;5.40;4.90;;;;;;;;;;5113827;28;20544;-65
2022/12/24 13:01:43;;;;;;;6.57;5.90;;;;;;;;;;5113890;28;20542;-65
2022/12/24 13:04:16;;;;;;;5.00;4.70;;;;;;;;;;5113984;28;20511;-65
2022/12/24 13:06:52;;;;;;;6.90;6.30;;;;;;;;;;5113689;28;20884;-65
2022/12/24 13:09:34;;;;;;;5.90;5.50;;;;;;;;;;5113481;28;21024;-65
2022/12/24 13:12:08;;;;;;;8.03;7.33;;;;;;;;;;5109651;28;20470;-65
2022/12/24 13:14:48;;;;;;;6.93;6.23;;;;;;;;;;5113494;28;20445;-65
2022/12/24 13:17:30;;;;;;;10.63;7.67;;;;;;;;;;5112385;28;20445;-65
2022/12/24 13:20:09;;;;;;;7.67;6.80;;;;;;;;;;5092466;28;20518;-65
2022/12/24 13:22:38;;;;;;;6.37;5.87;;;;;;;;;;5113530;28;20532;-65
2022/12/24 13:25:05;;;;;;;6.83;6.10;;;;;;;;;;5113475;28;20449;-65
2022/12/24 13:27:33;;;;;;;6.83;6.23;;;;;;;;;;5113305;28;20529;-65
2022/12/24 13:30:02;;;;;;;6.67;6.17;;;;;;;;;;5113366;28;20471;-67
2022/12/24 13:32:39;;;;;;;5.30;4.90;;;;;;;;;;5113352;28;20564;-65
2022/12/24 13:35:21;;;;;;;4.00;3.60;;;;;;;;;;5113415;28;20445;-65
2022/12/24 13:37:50;;;;;;;3.77;3.50;;;;;;;;;;5112613;28;20874;-65
2022/12/24 13:40:22;;;;;;;4.00;3.70;;;;;;;;;;5113188;28;20607;-65
2022/12/24 13:42:50;;;;;;;4.90;4.20;;;;;;;;;;5113301;28;20529;-64
2022/12/24 13:45:36;;;;;;;4.40;4.00;;;;;;;;;;5113079;28;20529;-65
2022/12/24 13:48:15;;;;;;;4.20;3.80;;;;;;;;;;5113052;28;21027;-65
2022/12/24 13:50:44;;;;;;;6.87;4.80;;;;;;;;;;5112964;28;20808;-65
2022/12/24 13:53:22;;;;;;;3.20;3.00;;;;;;;;;;5113007;28;20513;-65
2022/12/24 13:55:51;;;;;;;3.40;3.20;;;;;;;;;;5113035;28;20473;-65
2022/12/24 13:58:20;;;;;;;3.10;2.50;;;;;;;;;;5112853;28;21012;-65
2022/12/24 14:00:54;;;;;;;2.63;2.43;;;;;;;;;;5112987;28;20468;-65
2022/12/24 14:03:24;;;;;;;2.90;2.40;;;;;;;;;;5113150;28;20461;-65
2022/12/24 14:05:52;;;;;;;3.80;2.97;;;;;;;;;;5113028;28;20835;-65
2022/12/24 14:08:28;;;;;;;4.73;4.13;;;;;;;;;;5112854;28;20446;-65
2022/12/24 14:11:03;;;;;;;5.77;2.93;;;;;;;;;;5113159;28;21009;-65
2022/12/24 14:13:50;;;;;;;4.90;4.50;;;;;;;;;;5112812;28;20481;-65
2022/12/24 14:16:18;;;;;;;6.83;5.80;;;;;;;;;;5112626;28;20522;-64
2022/12/24 14:18:47;;;;;;;9.73;5.97;;;;;;;;;;5112541;28;20446;-64
2022/12/24 14:21:18;;;;;;;10.37;6.93;;;;;;;;;;5112706;28;20532;-65
2022/12/24 14:23:50;;;;;;;8.03;7.30;;;;;;;;;;5112668;28;20457;-65
2022/12/24 14:26:18;;;;;;;9.13;6.03;;;;;;;;;;5112607;28;20540;-65
2022/12/24 14:28:47;;;;;;;7.90;5.50;;;;;;;;;;5113977;28;20481;-65
2022/12/24 14:31:15;;;;;;;7.30;5.80;;;;;;;;;;5116593;28;20495;-65
2022/12/24 14:33:42;;;;;;;6.97;6.30;;;;;;;;;;5116477;28;20588;-65
2022/12/24 14:36:10;;;;;;;8.83;4.90;;;;;;;;;;5116414;28;20446;-65
2022/12/24 14:38:37;;;;;;;7.83;5.27;;;;;;;;;;5116492;28;20450;-65
2022/12/24 14:41:09;;;;;;;7.80;4.80;;;;;;;;;;5116223;28;20524;-65
2022/12/24 14:43:43;;;;;;;6.00;4.10;;;;;;;;;;5116373;28;20445;-65
2022/12/24 14:46:13;;;;;;;4.13;3.73;;;;;;;;;;5116152;28;20505;-65
2022/12/24 14:48:43;;;;;;;6.50;3.40;;;;;;;;;;5116161;28;20561;-65
2022/12/24 14:51:13;;;;;;;4.83;2.87;;;;;;;;;;5115978;28;20534;-64
2022/12/24 14:53:48;;;;;;;3.30;3.00;;;;;;;;;;5116046;28;20512;-65
2022/12/24 14:56:17;;;;;;;6.57;2.60;;;;;;;;;;5116167;28;20442;-65